Time;durP1;ratioP1;P1;durP2;ratioP2;P2;SDS_P1;SDS_P2;PMS_P1;PMS_P2;Temp;Humidity;BMP_temperature;BMP_pressure;BME280_temperature;BME280_humidity;BME280_pressure;Samples;Min_cycle;Max_cycle;Signal;HPM_P1;HPM_P2
2023/02/14 00:00:49;;;;;;;10.27;8.10;;;5.10;1.00;;;;;;5034535;28;20554;-65
2023/02/14 00:03:17;;;;;;;15.33;8.97;;;5.10;1.00;;;;;;5034836;28;20470;-65
2023/02/14 00:05:44;;;;;;;11.77;8.80;;;5.10;1.00;;;;;;5035364;28;20942;-65
2023/02/14 00:08:11;;;;;;;12.40;8.90;;;5.10;1.00;;;;;;5035315;28;20467;-65
2023/02/14 00:10:38;;;;;;;15.93;7.80;;;5.10;1.00;;;;;;5035219;28;20546;-65
2023/02/14 00:13:06;;;;;;;9.07;7.73;;;5.10;1.00;;;;;;5035151;28;20491;-65
2023/02/14 00:15:32;;;;;;;10.53;7.93;;;5.10;1.00;;;;;;5035348;28;20492;-65
2023/02/14 00:18:02;;;;;;;11.57;8.07;;;5.00;1.00;;;;;;5033825;28;20778;-65
2023/02/14 00:20:29;;;;;;;11.63;9.20;;;5.10;1.00;;;;;;5033247;28;20520;-65
2023/02/14 00:22:56;;;;;;;13.03;9.27;;;5.20;1.00;;;;;;5030566;28;20570;-65
2023/02/14 00:25:24;;;;;;;13.63;9.17;;;5.10;1.00;;;;;;5033284;28;20467;-65
2023/02/14 00:27:54;;;;;;;11.13;8.73;;;5.10;1.00;;;;;;5033212;28;20516;-66
2023/02/14 00:30:21;;;;;;;12.87;9.53;;;5.10;1.00;;;;;;5033607;28;20474;-65
2023/02/14 00:32:48;;;;;;;11.23;8.77;;;5.00;1.00;;;;;;5033058;28;20448;-65
2023/02/14 00:35:17;;;;;;;11.43;8.00;;;5.00;1.00;;;;;;5032929;28;20546;-65
2023/02/14 00:37:46;;;;;;;11.60;8.70;;;4.90;1.00;;;;;;5032582;28;20565;-66
2023/02/14 00:40:13;;;;;;;11.27;8.47;;;4.90;1.00;;;;;;5033077;28;20491;-66
2023/02/14 00:42:41;;;;;;;10.50;8.60;;;4.80;1.00;;;;;;5032512;28;20589;-65
2023/02/14 00:45:09;;;;;;;12.43;8.30;;;4.80;1.00;;;;;;5033290;28;20461;-66
2023/02/14 00:47:36;;;;;;;11.33;8.73;;;4.70;1.00;;;;;;5033033;28;20886;-66
2023/02/14 00:50:03;;;;;;;13.80;8.67;;;4.70;1.00;;;;;;5033192;28;20963;-65
2023/02/14 00:52:32;;;;;;;11.23;8.90;;;4.60;1.00;;;;;;5032905;28;20459;-65
2023/02/14 00:55:00;;;;;;;20.90;10.60;;;4.60;1.00;;;;;;5033271;28;20483;-65
2023/02/14 00:57:28;;;;;;;13.23;8.70;;;4.60;1.00;;;;;;5034380;28;20554;-65
2023/02/14 00:59:55;;;;;;;10.33;8.20;;;4.50;1.00;;;;;;5033539;28;20437;-66
2023/02/14 01:02:23;;;;;;;14.07;8.27;;;4.40;1.00;;;;;;5034288;28;20501;-66
2023/02/14 01:04:50;;;;;;;11.87;9.13;;;4.30;1.00;;;;;;5034362;28;20474;-66
2023/02/14 01:07:17;;;;;;;10.83;8.73;;;4.30;1.00;;;;;;5034267;28;20437;-66
2023/02/14 01:09:46;;;;;;;12.80;8.57;;;4.30;1.00;;;;;;5034018;28;20467;-66
2023/02/14 01:12:13;;;;;;;10.23;7.33;;;4.20;1.00;;;;;;5033707;28;20520;-66
2023/02/14 01:14:40;;;;;;;11.83;9.13;;;4.10;1.00;;;;;;5033328;28;20555;-66
2023/02/14 01:17:07;;;;;;;10.47;8.27;;;4.00;72.80;;;;;;5032983;28;20467;-66
2023/02/14 01:19:35;;;;;;;12.27;8.37;;;3.90;99.90;;;;;;5033776;28;20570;-66
2023/02/14 01:22:02;;;;;;;13.20;8.73;;;4.00;99.90;;;;;;5034432;28;20483;-66
2023/02/14 01:24:30;;;;;;;11.47;8.67;;;4.00;99.90;;;;;;5033724;28;20892;-66
2023/02/14 01:26:58;;;;;;;9.37;8.00;;;4.10;99.90;;;;;;5033108;28;20570;-66
2023/02/14 01:29:26;;;;;;;12.73;9.20;;;4.10;99.90;;;;;;5031049;28;20481;-66
2023/02/14 01:31:53;;;;;;;10.40;8.87;;;4.20;99.90;;;;;;5033651;28;20492;-66
2023/02/14 01:34:20;;;;;;;10.77;9.67;;;4.20;99.90;;;;;;5033796;28;20934;-66
2023/02/14 01:36:47;;;;;;;10.87;9.27;;;4.20;99.90;;;;;;5033741;28;20513;-66
2023/02/14 01:39:16;;;;;;;11.13;9.90;;;4.20;99.90;;;;;;5036637;28;20542;-67
2023/02/14 01:41:47;;;;;;;10.97;9.10;;;4.20;99.90;;;;;;5037230;28;20540;-66
2023/02/14 01:44:47;;;;;;;14.13;9.70;;;4.30;99.90;;;;;;5037732;28;20941;-66
2023/02/14 01:47:17;;;;;;;11.23;9.13;;;4.30;99.90;;;;;;5038713;28;20972;-66
2023/02/14 01:49:47;;;;;;;11.70;9.17;;;4.20;91.20;;;;;;5037179;28;20455;-66
2023/02/14 01:52:18;;;;;;;12.27;9.20;;;4.20;98.00;;;;;;5037480;28;20794;-66
2023/02/14 01:54:52;;;;;;;12.20;9.47;;;4.20;99.90;;;;;;5036865;28;20518;-66
2023/02/14 01:57:21;;;;;;;12.20;9.47;;;4.00;99.90;;;;;;5037824;28;20463;-66
2023/02/14 01:59:54;;;;;;;13.63;9.27;;;4.00;99.90;;;;;;5037345;28;20561;-66
2023/02/14 02:02:23;;;;;;;12.53;9.43;;;4.10;99.90;;;;;;5036221;28;20577;-66
2023/02/14 02:04:53;;;;;;;10.97;8.00;;;4.30;99.90;;;;;;5037393;28;20467;-66
2023/02/14 02:07:26;;;;;;;10.13;8.20;;;4.40;99.90;;;;;;5037297;28;20566;-66
2023/02/14 02:09:56;;;;;;;12.13;9.40;;;4.60;96.20;;;;;;5037270;28;20490;-66
2023/02/14 02:12:24;;;;;;;9.70;7.90;;;4.60;2.10;;;;;;5036019;28;20472;-66
2023/02/14 02:14:55;;;;;;;14.03;8.83;;;4.60;1.00;;;;;;5036625;28;20463;-66
2023/02/14 02:17:33;;;;;;;11.57;8.40;;;4.50;1.00;;;;;;5037022;28;20554;-66
2023/02/14 02:20:24;;;;;;;10.13;8.07;;;4.40;1.00;;;;;;5037153;28;20557;-66
2023/02/14 02:23:29;;;;;;;12.00;8.80;;;4.30;1.00;;;;;;5036525;28;20836;-66
2023/02/14 02:26:38;;;;;;;9.87;8.40;;;4.10;1.00;;;;;;5033015;27;20756;-67
2023/02/14 02:29:28;;;;;;;10.57;8.53;;;4.10;14.20;;;;;;5036546;28;20755;-67
2023/02/14 02:32:17;;;;;;;9.50;8.50;;;4.00;31.20;;;;;;5036167;28;20832;-67
2023/02/14 02:35:18;;;;;;;8.97;7.30;;;3.90;23.40;;;;;;5035174;28;20467;-67
2023/02/14 02:38:00;;;;;;;12.03;10.03;;;3.70;35.40;;;;;;5036318;28;20524;-66
2023/02/14 02:40:38;;;;;;;12.90;9.10;;;3.90;99.90;;;;;;5034465;28;20474;-66
2023/02/14 02:43:15;;;;;;;10.40;8.57;;;3.80;99.90;;;;;;5035698;28;20589;-66
2023/02/14 02:48:41;;;;;;;11.80;8.37;;;3.50;99.90;;;;;;5035182;28;20439;-66
2023/02/14 02:54:05;;;;;;;13.80;9.03;;;3.40;99.90;;;;;;5010361;28;20467;-66
2023/02/14 02:56:44;;;;;;;11.80;8.93;;;3.20;99.90;;;;;;5035542;28;20561;-66
2023/02/14 02:59:19;;;;;;;11.33;9.10;;;3.10;99.90;;;;;;5036457;28;20876;-66
2023/02/14 03:01:52;;;;;;;14.93;10.33;;;3.20;99.90;;;;;;5035561;28;20491;-66
2023/02/14 03:07:33;;;;;;;12.27;9.23;;;2.90;99.90;;;;;;5035489;28;20439;-66
2023/02/14 03:09:58;;;;;;;11.93;9.27;;;2.80;99.90;;;;;;5035885;28;20456;-66
2023/02/14 03:13:04;;;;;;;13.07;10.10;;;2.90;99.90;;;;;;5035582;28;20863;-66
2023/02/14 03:15:47;;;;;;;10.67;8.93;;;2.80;1.00;;;;;;5024484;28;20539;-66
2023/02/14 03:21:24;;;;;;;15.27;11.60;;;2.70;1.00;;;;;;5035177;28;20535;-66
2023/02/14 03:23:56;;;;;;;15.10;10.30;;;2.70;1.00;;;;;;5035186;28;20495;-66
2023/02/14 03:26:33;;;;;;;14.47;10.20;;;2.60;1.00;;;;;;5035686;28;20566;-66
2023/02/14 03:29:10;;;;;;;17.87;11.10;;;2.60;1.00;;;;;;5035774;28;20975;-66
2023/02/14 03:31:45;;;;;;;12.87;11.33;;;2.50;99.90;;;;;;5035706;28;20532;-66
2023/02/14 03:34:16;;;;;;;15.23;11.37;;;2.50;99.90;;;;;;5035300;28;20502;-66
2023/02/14 03:36:48;;;;;;;12.60;10.47;;;2.50;99.90;;;;;;5035266;28;20550;-67
2023/02/14 03:39:21;;;;;;;14.97;10.70;;;2.40;99.90;;;;;;5034565;28;20469;-67
2023/02/14 03:41:55;;;;;;;14.23;11.23;;;2.30;99.90;;;;;;5035474;28;20559;-66
2023/02/14 03:44:27;;;;;;;15.30;12.10;;;2.30;1.00;;;;;;5035291;28;20469;-66
2023/02/14 03:46:59;;;;;;;15.57;11.77;;;2.30;28.50;;;;;;5015631;28;20468;-67
2023/02/14 03:49:30;;;;;;;15.20;11.20;;;2.30;92.40;;;;;;5021152;28;20470;-66
2023/02/14 03:52:00;;;;;;;13.03;9.90;;;2.30;69.70;;;;;;5035589;28;20471;-66
2023/02/14 03:54:28;;;;;;;16.23;12.03;;;2.40;99.90;;;;;;5035354;28;20589;-66
2023/02/14 03:57:07;;;;;;;16.93;11.03;;;2.40;99.90;;;;;;5034770;28;20467;-67
2023/02/14 03:59:35;;;;;;;18.13;12.80;;;2.40;20.00;;;;;;5035188;28;20460;-66
2023/02/14 04:02:08;;;;;;;17.60;11.60;;;2.50;99.90;;;;;;5034367;28;20957;-66
2023/02/14 04:04:40;;;;;;;16.83;11.90;;;2.40;99.90;;;;;;5035340;28;20929;-66
2023/02/14 04:07:12;;;;;;;16.00;12.13;;;2.40;53.00;;;;;;5034213;28;20471;-66
2023/02/14 04:09:39;;;;;;;15.57;11.60;;;2.40;56.10;;;;;;5034871;28;20462;-66
2023/02/14 04:12:08;;;;;;;16.40;11.30;;;2.40;99.90;;;;;;5035545;28;20487;-66
2023/02/14 04:14:36;;;;;;;15.57;11.17;;;2.30;77.70;;;;;;5035165;28;20500;-66
2023/02/14 04:19:48;;;;;;;18.40;12.50;;;2.30;99.90;;;;;;5034965;28;20535;-66
2023/02/14 04:22:15;;;;;;;17.70;13.10;;;2.40;99.90;;;;;;5035244;28;20491;-66
2023/02/14 04:24:42;;;;;;;21.93;15.77;;;2.40;99.90;;;;;;5034723;28;20558;-66
2023/02/14 04:27:11;;;;;;;17.80;12.90;;;2.60;99.90;;;;;;5034035;28;20855;-66
2023/02/14 04:29:40;;;;;;;22.53;14.67;;;2.50;99.90;;;;;;5034736;28;20464;-66
2023/02/14 04:32:10;;;;;;;16.57;11.90;;;2.60;99.90;;;;;;5035220;28;20562;-66
2023/02/14 04:34:38;;;;;;;18.83;13.63;;;2.50;1.00;;;;;;5034404;28;20467;-66
2023/02/14 04:37:06;;;;;;;19.83;13.43;;;2.50;1.00;;;;;;5033169;28;20471;-66
2023/02/14 04:39:33;;;;;;;18.67;14.33;;;2.50;1.00;;;;;;5031913;28;20558;-66
2023/02/14 04:42:01;;;;;;;22.90;14.73;;;2.50;18.70;;;;;;5033937;28;20467;-66
2023/02/14 04:44:30;;;;;;;22.00;15.27;;;2.60;99.90;;;;;;5033503;28;20485;-66
2023/02/14 04:46:57;;;;;;;21.00;15.00;;;2.60;99.90;;;;;;5034128;28;20511;-66
2023/02/14 04:49:24;;;;;;;22.50;14.63;;;2.60;99.90;;;;;;5033614;28;20485;-66
2023/02/14 04:51:51;;;;;;;21.87;15.47;;;2.60;99.90;;;;;;5034053;28;20463;-66
2023/02/14 04:54:18;;;;;;;19.77;14.53;;;2.50;1.00;;;;;;5032791;28;20487;-66
2023/02/14 04:56:46;;;;;;;19.90;15.37;;;2.50;62.70;;;;;;5033341;28;20467;-67
2023/02/14 04:59:13;;;;;;;20.03;14.90;;;2.60;99.90;;;;;;5032516;28;21276;-66
2023/02/14 05:01:42;;;;;;;20.37;16.00;;;2.50;1.00;;;;;;5048836;27;20585;-67
2023/02/14 05:04:09;;;;;;;20.00;15.10;;;2.50;99.90;;;;;;5030196;28;20495;-66
2023/02/14 05:06:37;;;;;;;20.63;14.37;;;2.50;19.20;;;;;;5034847;27;20876;-67
2023/02/14 05:09:04;;;;;;;30.60;18.53;;;2.50;1.00;;;;;;5033481;28;21215;-66
2023/02/14 05:11:31;;;;;;;23.30;16.13;;;2.60;92.90;;;;;;5032958;28;20577;-66
2023/02/14 05:13:59;;;;;;;23.30;16.63;;;2.70;1.00;;;;;;5024433;28;20521;-66
2023/02/14 05:16:26;;;;;;;28.33;17.83;;;2.90;42.90;;;;;;5028008;28;20522;-66
2023/02/14 05:18:54;;;;;;;21.30;14.53;;;2.90;1.00;;;;;;5033238;28;20562;-66
2023/02/14 05:21:22;;;;;;;25.33;16.97;;;2.90;99.90;;;;;;5032483;28;20555;-66
2023/02/14 05:23:49;;;;;;;25.57;17.40;;;2.80;1.00;;;;;;5033189;28;20597;-66
2023/02/14 05:26:16;;;;;;;26.03;17.30;;;2.80;1.00;;;;;;5024995;28;20464;-66
2023/02/14 05:28:43;;;;;;;26.37;17.70;;;2.80;1.00;;;;;;5026476;28;20896;-66
2023/02/14 05:31:11;;;;;;;28.10;18.00;;;2.80;99.90;;;;;;5074147;28;20756;-66
2023/02/14 05:33:38;;;;;;;25.90;17.43;;;2.80;1.00;;;;;;5035734;28;20766;-66
2023/02/14 05:36:07;;;;;;;35.07;20.73;;;2.80;99.90;;;;;;5033594;28;20438;-66
2023/02/14 05:38:34;;;;;;;23.73;17.57;;;2.80;99.90;;;;;;5032763;28;20550;-66
2023/02/14 05:41:02;;;;;;;26.77;19.00;;;2.90;90.50;;;;;;5035698;28;20459;-66
2023/02/14 05:43:30;;;;;;;28.90;18.73;;;2.90;1.00;;;;;;5031910;28;20574;-66
2023/02/14 05:45:57;;;;;;;30.40;19.70;;;2.80;1.00;;;;;;5051439;28;20462;-66
2023/02/14 05:48:24;;;;;;;29.33;19.00;;;2.90;1.00;;;;;;5092472;28;20463;-66
2023/02/14 05:50:52;;;;;;;29.47;20.60;;;2.80;1.00;;;;;;5030716;28;20471;-66
2023/02/14 05:53:20;;;;;;;31.13;19.47;;;2.80;1.00;;;;;;5037841;28;20491;-66
2023/02/14 05:55:48;;;;;;;38.03;21.40;;;2.80;99.90;;;;;;5031304;28;21069;-66
2023/02/14 05:58:15;;;;;;;35.20;22.70;;;2.70;1.00;;;;;;5029767;28;20900;-66
2023/02/14 06:00:42;;;;;;;36.50;21.90;;;2.70;99.90;;;;;;5048655;28;20473;-66
2023/02/14 06:03:09;;;;;;;30.23;21.30;;;2.90;99.90;;;;;;5031500;28;21191;-66
2023/02/14 06:05:36;;;;;;;35.40;20.70;;;2.80;1.00;;;;;;5031752;28;20477;-66
2023/02/14 06:08:04;;;;;;;26.77;18.80;;;2.80;99.90;;;;;;5031725;28;20521;-66
2023/02/14 06:10:32;;;;;;;29.97;19.57;;;2.80;99.90;;;;;;5031280;28;20499;-66
2023/02/14 06:13:00;;;;;;;36.67;22.10;;;2.80;99.90;;;;;;5062079;28;20529;-66
2023/02/14 06:15:27;;;;;;;35.03;21.60;;;2.80;99.90;;;;;;5020125;28;20459;-66
2023/02/14 06:17:56;;;;;;;35.33;22.10;;;2.80;1.00;;;;;;5030442;28;20467;-66
2023/02/14 06:20:24;;;;;;;36.13;24.47;;;2.80;65.50;;;;;;5031433;28;20546;-66
2023/02/14 06:22:52;;;;;;;34.37;21.43;;;2.90;99.90;;;;;;5030487;28;20491;-65
2023/02/14 06:25:20;;;;;;;40.50;22.47;;;3.00;1.00;;;;;;5035660;28;20463;-66
2023/02/14 06:27:49;;;;;;;35.67;22.00;;;3.10;99.90;;;;;;5034961;28;20463;-66
2023/02/14 06:30:17;;;;;;;38.17;21.10;;;3.30;1.00;;;;;;5034830;28;20464;-67
2023/02/14 06:32:45;;;;;;;41.23;22.13;;;3.40;1.00;;;;;;5035163;28;20927;-66
2023/02/14 06:35:12;;;;;;;33.03;21.03;;;3.40;99.90;;;;;;5032809;28;20550;-66
2023/02/14 06:37:41;;;;;;;32.47;19.67;;;3.40;1.00;;;;;;5028727;28;20707;-65
2023/02/14 06:40:09;;;;;;;32.47;20.67;;;3.50;1.00;;;;;;5032337;28;20562;-65
2023/02/14 06:42:36;;;;;;;31.50;19.50;;;3.70;99.90;;;;;;5030821;28;20499;-64
2023/02/14 06:45:06;;;;;;;28.50;18.70;;;3.70;99.90;;;;;;5032004;28;20540;-65
2023/02/14 06:47:33;;;;;;;27.70;18.00;;;3.70;99.90;;;;;;5033176;28;20552;-64
2023/02/14 06:50:03;;;;;;;28.50;17.93;;;3.80;95.20;;;;;;5034915;27;20955;-65
2023/02/14 06:52:30;;;;;;;25.17;17.07;;;3.80;7.60;;;;;;5033629;28;20478;-65
2023/02/14 06:54:57;;;;;;;26.47;15.90;;;3.70;1.00;;;;;;5033629;28;20490;-65
2023/02/14 06:57:24;;;;;;;30.30;16.50;;;3.80;1.00;;;;;;5035493;28;20562;-65
2023/02/14 06:59:51;;;;;;;25.00;16.70;;;3.80;1.00;;;;;;5035800;28;20554;-64
2023/02/14 07:02:21;;;;;;;26.80;16.70;;;3.80;1.00;;;;;;5034197;28;20437;-64
2023/02/14 07:04:48;;;;;;;24.23;16.77;;;3.80;1.00;;;;;;5033685;28;20491;-63
2023/02/14 07:07:15;;;;;;;23.57;15.70;;;3.80;1.00;;;;;;5033454;28;20495;-63
2023/02/14 07:09:42;;;;;;;25.17;16.43;;;3.90;1.00;;;;;;5033229;28;20467;-63
2023/02/14 07:12:09;;;;;;;26.33;17.17;;;3.90;99.90;;;;;;5034400;28;20500;-63
2023/02/14 07:14:37;;;;;;;21.00;15.10;;;3.90;99.90;;;;;;5033883;28;20852;-61
2023/02/14 07:17:04;;;;;;;23.23;15.33;;;4.00;99.90;;;;;;5034806;28;20468;-63
2023/02/14 07:19:32;;;;;;;23.70;16.73;;;4.10;99.90;;;;;;5034499;28;20467;-62
2023/02/14 07:22:00;;;;;;;21.43;14.90;;;4.20;99.90;;;;;;5032944;28;20470;-62
2023/02/14 07:24:27;;;;;;;22.40;14.53;;;4.20;99.90;;;;;;5034308;28;20495;-62
2023/02/14 07:26:54;;;;;;;23.83;15.13;;;4.20;99.90;;;;;;5033273;28;20467;-63
2023/02/14 07:29:21;;;;;;;26.47;15.50;;;4.20;96.20;;;;;;5033693;28;20475;-62
2023/02/14 07:31:48;;;;;;;24.60;15.60;;;4.30;99.90;;;;;;5034754;28;20778;-62
2023/02/14 07:34:15;;;;;;;22.63;15.43;;;4.30;99.90;;;;;;5035054;28;20481;-62
2023/02/14 07:36:44;;;;;;;24.30;15.70;;;4.30;90.30;;;;;;5033148;28;20463;-62
2023/02/14 07:39:11;;;;;;;21.60;14.10;;;4.40;58.10;;;;;;5034794;28;20475;-62
2023/02/14 07:41:39;;;;;;;21.33;15.40;;;4.40;43.10;;;;;;5034957;28;20545;-62
2023/02/14 07:44:06;;;;;;;21.10;13.90;;;4.40;25.90;;;;;;5035772;28;20570;-62
2023/02/14 07:46:33;;;;;;;22.63;15.53;;;4.40;11.00;;;;;;5034509;28;20482;-61
2023/02/14 07:49:00;;;;;;;23.50;15.13;;;4.50;9.10;;;;;;5034868;28;20554;-62
2023/02/14 07:51:27;;;;;;;22.60;16.23;;;4.50;9.70;;;;;;5035618;28;20463;-62
2023/02/14 07:53:56;;;;;;;20.40;16.00;;;4.50;1.00;;;;;;5034632;28;20494;-62
2023/02/14 07:56:23;;;;;;;26.87;15.77;;;4.60;1.00;;;;;;5033382;28;20459;-62
2023/02/14 07:58:50;;;;;;;21.57;14.57;;;4.60;1.00;;;;;;5034491;28;20468;-62
2023/02/14 08:01:18;;;;;;;21.70;16.20;;;4.70;1.00;;;;;;5033751;28;20488;-62
2023/02/14 08:03:48;;;;;;;22.30;13.93;;;4.70;1.00;;;;;;5034500;28;20490;-62
2023/02/14 08:06:15;;;;;;;21.40;13.67;;;4.80;29.30;;;;;;5034843;28;20473;-61
2023/02/14 08:08:42;;;;;;;19.77;13.93;;;4.90;40.70;;;;;;5034254;28;20960;-62
2023/02/14 08:11:11;;;;;;;23.00;16.17;;;5.20;1.00;;;;;;5034649;28;20565;-62
2023/02/14 08:13:57;;;;;;;20.90;15.70;;;5.40;1.00;;;;;;5035209;28;20452;-62
2023/02/14 08:16:24;;;;;;;21.10;14.97;;;5.70;1.00;;;;;;5035114;28;20864;-62
2023/02/14 08:18:52;;;;;;;21.57;13.17;;;6.00;1.00;;;;;;5034008;28;20448;-62
2023/02/14 08:21:19;;;;;;;20.10;14.10;;;6.20;1.00;;;;;;5038241;27;20486;-62
2023/02/14 08:23:46;;;;;;;22.43;14.50;;;6.50;1.00;;;;;;5035695;28;20572;-62
2023/02/14 08:26:16;;;;;;;18.50;13.20;;;6.70;1.00;;;;;;5033923;28;20494;-62
2023/02/14 08:28:43;;;;;;;19.63;14.37;;;6.80;1.00;;;;;;5033513;28;20950;-63
2023/02/14 08:31:11;;;;;;;17.87;12.43;;;7.10;1.00;;;;;;5033968;28;20467;-63
2023/02/14 08:33:38;;;;;;;20.60;14.30;;;7.20;1.00;;;;;;5033770;28;20762;-63
2023/02/14 08:36:06;;;;;;;20.53;14.17;;;7.30;1.00;;;;;;5034402;28;20437;-63
2023/02/14 08:38:33;;;;;;;19.27;14.10;;;7.60;1.00;;;;;;5033828;28;20943;-63
2023/02/14 08:41:01;;;;;;;17.10;12.77;;;7.70;1.00;;;;;;5032782;28;20850;-63
2023/02/14 08:43:30;;;;;;;20.70;13.80;;;7.80;1.00;;;;;;5031314;28;20486;-63
2023/02/14 08:45:57;;;;;;;17.77;12.87;;;8.00;1.00;;;;;;5032943;28;20814;-63
2023/02/14 08:48:25;;;;;;;18.90;13.20;;;8.20;1.00;;;;;;5032701;28;20802;-63
2023/02/14 08:50:52;;;;;;;19.20;12.93;;;8.40;1.00;;;;;;5031487;28;20471;-63
2023/02/14 08:53:20;;;;;;;20.30;12.80;;;8.60;99.90;;;;;;5032071;28;20495;-63
2023/02/14 08:55:48;;;;;;;15.67;12.43;;;8.70;99.90;;;;;;5032683;28;20467;-63
2023/02/14 08:58:16;;;;;;;18.30;12.37;;;9.00;99.90;;;;;;5033899;28;20471;-63
2023/02/14 09:00:44;;;;;;;18.07;13.37;;;9.20;99.90;;;;;;5032653;28;20489;-63
2023/02/14 09:03:11;;;;;;;15.53;13.53;;;9.40;99.90;;;;;;5033987;28;20547;-63
2023/02/14 09:05:39;;;;;;;18.30;13.10;;;9.50;99.90;;;;;;5032648;28;20586;-63
2023/02/14 09:08:06;;;;;;;15.10;11.90;;;9.60;99.90;;;;;;5033063;28;20512;-63
2023/02/14 09:10:33;;;;;;;15.60;12.63;;;9.90;99.90;;;;;;5032876;28;20463;-63
2023/02/14 09:13:00;;;;;;;17.57;12.50;;;9.90;99.90;;;;;;5032472;28;20804;-62
2023/02/14 09:15:28;;;;;;;17.90;12.30;;;10.20;99.90;;;;;;5033281;28;20913;-63
2023/02/14 09:17:56;;;;;;;17.77;12.40;;;10.20;99.90;;;;;;5033754;28;20479;-62
2023/02/14 09:20:24;;;;;;;16.33;12.93;;;10.30;99.90;;;;;;5033879;28;20460;-62
2023/02/14 09:22:51;;;;;;;14.70;12.00;;;10.30;99.90;;;;;;5032205;28;20487;-63
2023/02/14 09:25:18;;;;;;;15.97;11.90;;;10.50;99.90;;;;;;5024581;28;20491;-62
2023/02/14 09:27:45;;;;;;;17.50;13.67;;;10.70;99.90;;;;;;5034243;28;20465;-61
2023/02/14 09:30:14;;;;;;;13.20;10.87;;;10.90;99.90;;;;;;5033317;28;20470;-62
2023/02/14 09:32:41;;;;;;;16.30;11.93;;;11.00;99.90;;;;;;5033007;28;20524;-62
2023/02/14 09:35:09;;;;;;;17.20;11.30;;;11.30;99.90;;;;;;5033344;28;20461;-62
2023/02/14 09:40:21;;;;;;;14.00;12.10;;;11.40;99.90;;;;;;5033813;28;20434;-62
2023/02/14 09:43:05;;;;;;;18.03;11.50;;;11.50;99.90;;;;;;5033163;28;20548;-62
2023/02/14 09:45:34;;;;;;;15.00;11.70;;;11.70;99.90;;;;;;5023664;28;20810;-62
2023/02/14 09:48:06;;;;;;;15.17;11.33;;;11.80;99.90;;;;;;5033781;28;20872;-62
2023/02/14 09:50:40;;;;;;;17.00;12.07;;;12.30;99.90;;;;;;5033459;28;20774;-62
2023/02/14 09:53:18;;;;;;;16.60;13.03;;;12.40;99.90;;;;;;5032715;28;20558;-62
2023/02/14 09:55:53;;;;;;;13.67;11.23;;;12.60;99.90;;;;;;5033078;28;20459;-63
2023/02/14 09:58:25;;;;;;;14.60;11.40;;;12.60;99.90;;;;;;5034289;28;20467;-62
2023/02/14 10:00:58;;;;;;;14.97;12.27;;;12.70;99.90;;;;;;5036589;28;20508;-62
2023/02/14 10:03:46;;;;;;;15.40;12.50;;;12.70;99.90;;;;;;5036418;28;20566;-60
2023/02/14 10:06:40;;;;;;;14.50;11.33;;;13.00;99.90;;;;;;5037187;28;20542;-62
2023/02/14 10:09:17;;;;;;;16.60;10.70;;;13.20;99.90;;;;;;5036719;28;20545;-62
2023/02/14 10:11:47;;;;;;;14.97;11.60;;;13.00;99.90;;;;;;5036892;28;20505;-62
2023/02/14 10:14:18;;;;;;;14.50;11.03;;;12.80;99.90;;;;;;5036303;28;20528;-62
2023/02/14 10:16:50;;;;;;;13.30;10.77;;;12.90;99.90;;;;;;5035968;28;20549;-61
2023/02/14 10:19:21;;;;;;;13.40;10.80;;;13.20;99.90;;;;;;5036515;28;20459;-62
2023/02/14 10:21:54;;;;;;;14.53;12.43;;;13.40;99.90;;;;;;5036913;28;20463;-62
2023/02/14 10:24:25;;;;;;;12.77;11.20;;;13.60;99.90;;;;;;5036218;28;20491;-61
2023/02/14 10:26:57;;;;;;;13.13;10.70;;;13.50;99.90;;;;;;5036656;28;20861;-61
2023/02/14 10:29:25;;;;;;;13.40;11.30;;;13.50;99.90;;;;;;5034875;28;20478;-60
2023/02/14 10:31:57;;;;;;;13.83;11.30;;;13.20;99.90;;;;;;5034600;28;20482;-61
2023/02/14 10:34:33;;;;;;;12.57;11.00;;;13.40;99.90;;;;;;5035911;28;20462;-58
2023/02/14 10:37:25;;;;;;;14.50;11.50;;;13.80;99.90;;;;;;5036130;28;20473;-61
2023/02/14 10:40:02;;;;;;;13.27;11.87;;;14.20;99.90;;;;;;5036534;28;20496;-60
2023/02/14 10:42:39;;;;;;;13.10;11.00;;;14.30;99.90;;;;;;5036362;28;20462;-61
2023/02/14 10:45:17;;;;;;;12.93;11.53;;;14.40;99.90;;;;;;5035304;28;20495;-61
2023/02/14 10:47:54;;;;;;;13.30;11.90;;;14.50;99.90;;;;;;5035407;28;20491;-62
2023/02/14 10:50:27;;;;;;;13.73;11.57;;;14.50;99.90;;;;;;5035695;28;20507;-61
2023/02/14 10:53:03;;;;;;;13.00;11.70;;;14.40;99.90;;;;;;5036001;28;20470;-61
2023/02/14 10:55:40;;;;;;;13.13;11.63;;;14.60;99.90;;;;;;5035761;28;20883;-60
2023/02/14 10:58:12;;;;;;;12.90;11.20;;;15.10;99.90;;;;;;5025984;28;20475;-61
2023/02/14 11:00:45;;;;;;;14.90;12.30;;;15.30;99.90;;;;;;5033659;28;20833;-60
2023/02/14 11:03:14;;;;;;;12.90;11.07;;;15.50;99.90;;;;;;5035211;28;20463;-59
2023/02/14 11:05:44;;;;;;;13.83;12.47;;;15.30;99.90;;;;;;5034791;28;20503;-61
2023/02/14 11:08:21;;;;;;;13.00;11.60;;;15.40;99.90;;;;;;5034327;28;20903;-59
2023/02/14 11:10:49;;;;;;;13.90;11.30;;;15.70;99.90;;;;;;5032555;28;20477;-62
2023/02/14 11:13:31;;;;;;;13.87;11.90;;;16.00;99.90;;;;;;5034241;28;20558;-62
2023/02/14 11:16:04;;;;;;;14.40;12.00;;;15.90;99.90;;;;;;5034328;28;20498;-61
2023/02/14 11:18:34;;;;;;;13.43;10.80;;;16.10;99.90;;;;;;5034632;28;20464;-61
2023/02/14 11:21:08;;;;;;;15.27;11.07;;;16.10;99.90;;;;;;5035162;27;20467;-62
2023/02/14 11:23:40;;;;;;;12.83;11.50;;;16.20;99.90;;;;;;5033325;28;20488;-62
2023/02/14 11:26:14;;;;;;;12.20;10.93;;;16.20;99.90;;;;;;5035416;28;20582;-62
2023/02/14 11:28:53;;;;;;;12.97;11.27;;;16.30;99.90;;;;;;5035860;28;20465;-61
2023/02/14 11:31:29;;;;;;;13.00;10.97;;;16.10;99.90;;;;;;5035057;28;20538;-60
2023/02/14 11:33:57;;;;;;;13.97;11.83;;;16.30;99.90;;;;;;5034761;28;20474;-62
2023/02/14 11:36:25;;;;;;;12.37;11.07;;;16.20;99.90;;;;;;5034075;28;20743;-60
2023/02/14 11:39:03;;;;;;;13.03;11.73;;;16.30;99.90;;;;;;5028241;28;20790;-60
2023/02/14 11:41:47;;;;;;;12.80;11.50;;;16.70;99.90;;;;;;5033624;28;20913;-62
2023/02/14 11:44:21;;;;;;;12.10;10.83;;;16.80;99.90;;;;;;5033541;28;20783;-62
2023/02/14 11:46:49;;;;;;;13.00;11.70;;;16.60;99.90;;;;;;5033311;28;20891;-58
2023/02/14 11:49:30;;;;;;;13.00;11.67;;;16.50;99.90;;;;;;5032628;28;20803;-62
2023/02/14 11:51:59;;;;;;;13.80;12.10;;;16.70;99.90;;;;;;5036180;27;20490;-63
2023/02/14 11:54:34;;;;;;;12.43;11.10;;;16.90;99.90;;;;;;5032460;28;20595;-62
2023/02/14 11:57:08;;;;;;;14.40;12.50;;;16.90;99.90;;;;;;5033418;28;20816;-62
2023/02/14 11:59:40;;;;;;;13.67;12.17;;;16.80;99.90;;;;;;5022372;28;20460;-62
2023/02/14 12:02:31;;;;;;;11.93;10.73;;;17.00;99.90;;;;;;5033746;28;20455;-62
2023/02/14 12:05:01;;;;;;;12.30;11.00;;;17.30;99.90;;;;;;5030267;28;20499;-63
2023/02/14 12:07:32;;;;;;;12.43;11.20;;;17.70;99.90;;;;;;5036597;28;20473;-63
2023/02/14 12:10:24;;;;;;;12.60;11.30;;;17.80;99.90;;;;;;5034249;28;20867;-63
2023/02/14 12:12:54;;;;;;;12.87;11.47;;;17.90;99.90;;;;;;5034290;27;20562;-63
2023/02/14 12:15:29;;;;;;;13.67;11.97;;;18.10;99.90;;;;;;5033098;28;20452;-63
2023/02/14 12:18:05;;;;;;;13.13;11.73;;;18.40;99.90;;;;;;5033512;28;20736;-62
2023/02/14 12:20:41;;;;;;;12.20;10.50;;;18.50;99.90;;;;;;5026583;28;20467;-63
2023/02/14 12:23:17;;;;;;;12.53;10.80;;;18.70;99.90;;;;;;5033348;28;20474;-63
2023/02/14 12:25:51;;;;;;;12.57;11.27;;;19.00;99.90;;;;;;5033764;28;20498;-63
2023/02/14 12:28:22;;;;;;;12.40;11.10;;;18.90;99.90;;;;;;5033728;28;20467;-63
2023/02/14 12:30:50;;;;;;;13.23;11.93;;;18.70;99.90;;;;;;5032993;28;20471;-63
2023/02/14 12:33:20;;;;;;;13.17;11.77;;;18.70;99.90;;;;;;5032435;28;20464;-63
2023/02/14 12:35:55;;;;;;;13.20;11.80;;;18.70;99.90;;;;;;5032394;28;20899;-63
2023/02/14 12:38:35;;;;;;;11.97;10.77;;;18.90;99.90;;;;;;5032108;28;20938;-63
2023/02/14 12:41:16;;;;;;;13.77;11.17;;;18.90;99.90;;;;;;5032325;28;20463;-63
2023/02/14 12:43:49;;;;;;;12.83;11.23;;;19.10;99.90;;;;;;5039200;27;20471;-63
2023/02/14 12:46:44;;;;;;;14.20;12.27;;;19.00;99.90;;;;;;5037167;27;20491;-63
2023/02/14 12:49:34;;;;;;;12.03;10.73;;;19.00;99.90;;;;;;5028289;27;20466;-63
2023/02/14 12:52:18;;;;;;;14.00;12.50;;;19.20;99.90;;;;;;5027908;28;20471;-62
2023/02/14 12:55:01;;;;;;;13.50;12.10;;;18.90;99.90;;;;;;5026454;28;20499;-62
2023/02/14 12:57:40;;;;;;;13.10;11.80;;;19.00;99.90;;;;;;5031402;28;20767;-62
2023/02/14 13:00:23;;;;;;;12.67;11.37;;;19.30;99.90;;;;;;5030597;28;20781;-63
2023/02/14 13:03:26;;;;;;;13.80;12.10;;;19.40;99.90;;;;;;5039409;27;20493;-62
2023/02/14 13:06:00;;;;;;;14.90;12.60;;;19.50;99.90;;;;;;4987120;28;20507;-62
2023/02/14 13:08:44;;;;;;;13.70;12.30;;;19.30;99.90;;;;;;5016067;28;20461;-63
2023/02/14 13:11:21;;;;;;;13.37;12.00;;;19.30;99.90;;;;;;5033818;28;20491;-62
2023/02/14 13:14:03;;;;;;;14.07;12.57;;;19.10;99.90;;;;;;5032600;28;20463;-62
2023/02/14 13:16:35;;;;;;;13.00;11.77;;;18.40;99.90;;;;;;5036944;28;20485;-61
2023/02/14 13:19:06;;;;;;;13.43;12.10;;;18.20;99.90;;;;;;5043856;28;20471;-60